Time;durP1;ratioP1;P1;durP2;ratioP2;P2;SDS_P1;SDS_P2;PMS_P1;PMS_P2;Temp;Humidity;BMP_temperature;BMP_pressure;BME280_temperature;BME280_humidity;BME280_pressure;Samples;Min_cycle;Max_cycle;Signal;HPM_P1;HPM_P2
2020/12/03 00:01:26;;;;;;;12.10;10.20;;;;;;;;;;5036689;28;20219;-52
2020/12/03 00:03:58;;;;;;;11.13;9.32;;;;;;;;;;5037062;28;20222;-52
2020/12/03 00:06:32;;;;;;;12.90;9.88;;;;;;;;;;5036767;28;20172;-52
2020/12/03 00:08:59;;;;;;;11.07;9.50;;;;;;;;;;5036161;28;20198;-52
2020/12/03 00:11:30;;;;;;;10.82;9.73;;;;;;;;;;5036616;28;20506;-52
2020/12/03 00:13:57;;;;;;;10.05;8.40;;;;;;;;;;5036774;28;20184;-52
2020/12/03 00:16:23;;;;;;;9.63;8.50;;;;;;;;;;5036765;28;20183;-52
2020/12/03 00:18:49;;;;;;;10.80;9.13;;;;;;;;;;5036707;28;20190;-52
2020/12/03 00:21:15;;;;;;;12.35;9.27;;;;;;;;;;5037086;28;20241;-52
2020/12/03 00:23:42;;;;;;;12.02;8.88;;;;;;;;;;5035514;28;20247;-52
2020/12/03 00:26:09;;;;;;;9.95;8.88;;;;;;;;;;5036320;28;20184;-52
2020/12/03 00:28:36;;;;;;;10.10;8.77;;;;;;;;;;5036779;28;20195;-52
2020/12/03 00:31:02;;;;;;;10.15;8.77;;;;;;;;;;5036580;28;20182;-52
2020/12/03 00:33:28;;;;;;;9.65;8.65;;;;;;;;;;5036103;28;20226;-52
2020/12/03 00:35:55;;;;;;;10.20;9.15;;;;;;;;;;5036348;28;20212;-52
2020/12/03 00:38:21;;;;;;;10.63;9.05;;;;;;;;;;5036843;28;20271;-52
2020/12/03 00:40:48;;;;;;;9.95;8.65;;;;;;;;;;5036606;28;20605;-52
2020/12/03 00:43:15;;;;;;;10.07;8.63;;;;;;;;;;5036450;28;20171;-52
2020/12/03 00:45:41;;;;;;;8.65;7.75;;;;;;;;;;5036306;28;20225;-52
2020/12/03 00:48:07;;;;;;;10.52;8.77;;;;;;;;;;5036159;28;20182;-52
2020/12/03 00:50:34;;;;;;;9.95;8.50;;;;;;;;;;5036404;28;20187;-52
2020/12/03 00:53:00;;;;;;;9.60;8.15;;;;;;;;;;5036044;28;20179;-52
2020/12/03 00:55:26;;;;;;;9.25;8.18;;;;;;;;;;5036116;28;20182;-52
2020/12/03 00:57:52;;;;;;;9.93;7.95;;;;;;;;;;5036815;28;20497;-52
2020/12/03 01:00:19;;;;;;;9.77;8.27;;;;;;;;;;5036446;28;20172;-52
2020/12/03 01:02:46;;;;;;;10.13;8.32;;;;;;;;;;5036163;28;20624;-52
2020/12/03 01:05:12;;;;;;;8.85;7.95;;;;;;;;;;5035872;28;20176;-52
2020/12/03 01:07:38;;;;;;;10.38;8.45;;;;;;;;;;5036181;28;20204;-52
2020/12/03 01:10:06;;;;;;;8.85;7.95;;;;;;;;;;5036191;28;20199;-52
2020/12/03 01:12:32;;;;;;;9.85;8.70;;;;;;;;;;5036342;28;20446;-52
2020/12/03 01:14:58;;;;;;;8.80;7.80;;;;;;;;;;5035932;28;20167;-52
2020/12/03 01:17:24;;;;;;;10.55;8.40;;;;;;;;;;5036226;28;20577;-52
2020/12/03 01:19:51;;;;;;;8.57;7.68;;;;;;;;;;5030832;28;20184;-52
2020/12/03 01:22:17;;;;;;;8.88;7.97;;;;;;;;;;5032231;28;20243;-52
2020/12/03 01:24:43;;;;;;;10.27;8.68;;;;;;;;;;5040096;28;20203;-52
2020/12/03 01:27:10;;;;;;;9.63;8.27;;;;;;;;;;5040146;28;20255;-52
2020/12/03 01:29:36;;;;;;;10.13;8.05;;;;;;;;;;5039909;28;20464;-52
2020/12/03 01:32:02;;;;;;;10.25;8.25;;;;;;;;;;5040152;28;20172;-52
2020/12/03 01:34:28;;;;;;;10.05;8.57;;;;;;;;;;5039779;28;20258;-52
2020/12/03 01:36:54;;;;;;;9.77;8.40;;;;;;;;;;5039756;28;20607;-51
2020/12/03 01:39:21;;;;;;;9.85;8.00;;;;;;;;;;5038513;28;20172;-51
2020/12/03 01:41:47;;;;;;;9.02;8.13;;;;;;;;;;5033684;28;20279;-51
2020/12/03 01:44:14;;;;;;;8.82;7.90;;;;;;;;;;5039192;28;20279;-51
2020/12/03 01:46:40;;;;;;;8.48;7.68;;;;;;;;;;5040015;28;20172;-51
2020/12/03 01:49:13;;;;;;;9.38;8.20;;;;;;;;;;5039116;28;20187;-51
2020/12/03 01:51:41;;;;;;;8.77;7.32;;;;;;;;;;5039985;28;20442;-51
2020/12/03 01:54:09;;;;;;;7.85;7.05;;;;;;;;;;5038877;28;20179;-51
2020/12/03 01:56:43;;;;;;;9.63;7.55;;;;;;;;;;5039550;28;20172;-51
2020/12/03 01:59:10;;;;;;;9.15;8.15;;;;;;;;;;5039683;28;20233;-51
2020/12/03 02:01:36;;;;;;;7.85;6.95;;;;;;;;;;5037966;28;20204;-51
2020/12/03 02:04:03;;;;;;;8.23;7.32;;;;;;;;;;5039486;28;20218;-51
2020/12/03 02:06:32;;;;;;;8.63;7.75;;;;;;;;;;5038987;28;20563;-51
2020/12/03 02:08:58;;;;;;;8.38;7.30;;;;;;;;;;5020702;28;20238;-51
2020/12/03 02:11:24;;;;;;;8.60;7.70;;;;;;;;;;5037536;28;20184;-51
2020/12/03 02:14:00;;;;;;;7.72;7.03;;;;;;;;;;5039215;28;20195;-51
2020/12/03 02:16:28;;;;;;;8.45;7.53;;;;;;;;;;5029678;28;20191;-51
2020/12/03 02:18:54;;;;;;;8.23;7.20;;;;;;;;;;5039315;28;20310;-51
2020/12/03 02:21:20;;;;;;;8.07;7.28;;;;;;;;;;5039336;28;20271;-51
2020/12/03 02:23:46;;;;;;;7.95;7.15;;;;;;;;;;5032913;28;20188;-51
2020/12/03 02:26:13;;;;;;;8.43;7.57;;;;;;;;;;5027064;28;20176;-51
2020/12/03 02:28:39;;;;;;;9.10;7.30;;;;;;;;;;5038855;28;20347;-51
2020/12/03 02:31:05;;;;;;;7.78;6.97;;;;;;;;;;5020942;28;20300;-51
2020/12/03 02:33:34;;;;;;;8.07;7.28;;;;;;;;;;5031476;28;20176;-51
2020/12/03 02:36:00;;;;;;;8.35;7.05;;;;;;;;;;5038292;28;20574;-51
2020/12/03 02:38:29;;;;;;;8.02;7.22;;;;;;;;;;5038615;28;20569;-51
2020/12/03 02:40:55;;;;;;;9.50;7.75;;;;;;;;;;5038583;28;20175;-51
2020/12/03 02:43:21;;;;;;;8.60;7.40;;;;;;;;;;5038000;28;20428;-51
2020/12/03 02:45:47;;;;;;;8.90;7.60;;;;;;;;;;5038052;28;20539;-51
2020/12/03 02:48:13;;;;;;;8.38;7.47;;;;;;;;;;5028922;28;20172;-51
2020/12/03 02:50:39;;;;;;;9.25;7.70;;;;;;;;;;5020467;28;20179;-51
2020/12/03 02:53:05;;;;;;;9.00;7.82;;;;;;;;;;5038219;28;20187;-51
2020/12/03 02:55:31;;;;;;;7.90;6.95;;;;;;;;;;5038028;28;20184;-51
2020/12/03 02:57:57;;;;;;;7.88;7.10;;;;;;;;;;5038716;28;20187;-51
2020/12/03 03:00:23;;;;;;;8.10;7.30;;;;;;;;;;5038548;28;20229;-51
2020/12/03 03:02:49;;;;;;;8.07;7.28;;;;;;;;;;5038011;28;20199;-51
2020/12/03 03:05:15;;;;;;;8.15;7.13;;;;;;;;;;5038021;28;20168;-51
2020/12/03 03:07:42;;;;;;;10.38;7.20;;;;;;;;;;5038204;28;20203;-51
2020/12/03 03:10:08;;;;;;;7.82;7.03;;;;;;;;;;5037878;28;20284;-52
2020/12/03 03:12:34;;;;;;;7.95;6.93;;;;;;;;;;5037483;28;20552;-52
2020/12/03 03:15:00;;;;;;;7.47;6.65;;;;;;;;;;5038027;28;20173;-52
2020/12/03 03:17:26;;;;;;;8.40;7.15;;;;;;;;;;5034298;28;20176;-52
2020/12/03 03:19:52;;;;;;;7.72;6.93;;;;;;;;;;5031283;28;20275;-52
2020/12/03 03:22:18;;;;;;;7.70;6.90;;;;;;;;;;5037928;28;20266;-52
2020/12/03 03:24:44;;;;;;;7.78;6.97;;;;;;;;;;5037387;28;20184;-52
2020/12/03 03:27:10;;;;;;;7.68;6.90;;;;;;;;;;5037315;28;20183;-52
2020/12/03 03:29:36;;;;;;;7.40;6.70;;;;;;;;;;5037996;28;20573;-52
2020/12/03 03:32:02;;;;;;;7.25;6.55;;;;;;;;;;5038026;28;20184;-52
2020/12/03 03:34:28;;;;;;;7.28;6.57;;;;;;;;;;5037126;28;20559;-52
2020/12/03 03:36:54;;;;;;;7.53;6.72;;;;;;;;;;5037595;28;20191;-52
2020/12/03 03:39:21;;;;;;;7.68;6.88;;;;;;;;;;5033761;28;20199;-52
2020/12/03 03:41:47;;;;;;;6.88;6.20;;;;;;;;;;5018123;28;20215;-52
2020/12/03 03:44:14;;;;;;;7.82;7.03;;;;;;;;;;5036052;28;20570;-52
2020/12/03 03:46:40;;;;;;;6.47;5.85;;;;;;;;;;5036008;28;20179;-52
2020/12/03 03:49:06;;;;;;;7.35;6.55;;;;;;;;;;5036706;28;20585;-52
2020/12/03 03:51:32;;;;;;;7.38;6.68;;;;;;;;;;5037442;28;20188;-52
2020/12/03 03:53:58;;;;;;;8.00;7.20;;;;;;;;;;5037417;28;20246;-52
2020/12/03 03:56:24;;;;;;;7.07;6.38;;;;;;;;;;5037335;28;20176;-52
2020/12/03 03:58:50;;;;;;;7.38;6.68;;;;;;;;;;5037289;28;20188;-52
2020/12/03 04:01:16;;;;;;;6.95;6.25;;;;;;;;;;5018643;28;20263;-52
2020/12/03 04:03:42;;;;;;;7.18;6.47;;;;;;;;;;5033836;28;20606;-52
2020/12/03 04:06:08;;;;;;;6.47;5.85;;;;;;;;;;5036102;28;20180;-52
2020/12/03 04:08:34;;;;;;;6.88;6.10;;;;;;;;;;5036030;28;20255;-52
2020/12/03 04:11:00;;;;;;;7.00;6.30;;;;;;;;;;5037299;28;20164;-52
2020/12/03 04:13:26;;;;;;;6.88;6.03;;;;;;;;;;5037200;28;20179;-52
2020/12/03 04:15:52;;;;;;;7.20;6.50;;;;;;;;;;5036850;28;20164;-52
2020/12/03 04:18:25;;;;;;;7.50;6.75;;;;;;;;;;5036635;28;20552;-52
2020/12/03 04:20:51;;;;;;;7.40;6.63;;;;;;;;;;5037284;28;20168;-52
2020/12/03 04:23:17;;;;;;;8.02;7.20;;;;;;;;;;5036530;28;20175;-52
2020/12/03 04:25:43;;;;;;;7.03;6.32;;;;;;;;;;5036373;28;20456;-52
2020/12/03 04:28:09;;;;;;;7.40;6.68;;;;;;;;;;5036459;28;20176;-52
2020/12/03 04:30:35;;;;;;;7.32;6.60;;;;;;;;;;5037019;28;20439;-52
2020/12/03 04:33:01;;;;;;;6.45;5.85;;;;;;;;;;5030977;28;20254;-52
2020/12/03 04:35:27;;;;;;;7.82;6.78;;;;;;;;;;5034848;28;20211;-52
2020/12/03 04:37:53;;;;;;;7.30;6.60;;;;;;;;;;5036671;28;20562;-52
2020/12/03 04:40:24;;;;;;;7.38;6.57;;;;;;;;;;5022848;28;20263;-52
2020/12/03 04:42:51;;;;;;;6.63;6.03;;;;;;;;;;5017132;28;20247;-52
2020/12/03 04:45:30;;;;;;;7.82;7.03;;;;;;;;;;5017419;28;20336;-52
2020/12/03 04:47:56;;;;;;;6.47;5.80;;;;;;;;;;5032296;28;20442;-52
2020/12/03 04:50:40;;;;;;;7.03;6.32;;;;;;;;;;5036554;28;20255;-52
2020/12/03 04:53:09;;;;;;;6.53;5.93;;;;;;;;;;5036647;28;20566;-52
2020/12/03 04:55:35;;;;;;;7.10;6.40;;;;;;;;;;5036281;28;20171;-52
2020/12/03 04:58:16;;;;;;;6.90;6.20;;;;;;;;;;5033063;28;20190;-52
2020/12/03 05:00:56;;;;;;;6.32;5.72;;;;;;;;;;5030566;28;21038;-52
2020/12/03 05:03:28;;;;;;;7.00;6.25;;;;;;;;;;5036396;28;20258;-52
2020/12/03 05:06:13;;;;;;;6.20;5.60;;;;;;;;;;5035969;28;20250;-52
2020/12/03 05:08:43;;;;;;;6.82;6.13;;;;;;;;;;5036211;28;20186;-52
2020/12/03 05:11:17;;;;;;;7.30;6.43;;;;;;;;;;5036192;28;20179;-52
2020/12/03 05:13:47;;;;;;;6.32;5.72;;;;;;;;;;5036054;28;20262;-52
2020/12/03 05:16:36;;;;;;;6.95;6.25;;;;;;;;;;5035910;28;20585;-52
2020/12/03 05:19:12;;;;;;;6.63;5.97;;;;;;;;;;5030874;28;20203;-52
2020/12/03 05:21:38;;;;;;;6.05;5.45;;;;;;;;;;5036659;28;20439;-52
2020/12/03 05:24:04;;;;;;;6.22;5.63;;;;;;;;;;5035830;28;20187;-52
2020/12/03 05:26:32;;;;;;;6.43;5.80;;;;;;;;;;5035800;28;20183;-52
2020/12/03 05:29:01;;;;;;;6.50;5.90;;;;;;;;;;5035677;28;20210;-52
2020/12/03 05:31:27;;;;;;;6.30;5.70;;;;;;;;;;5035783;28;20176;-52
2020/12/03 05:33:54;;;;;;;6.10;5.50;;;;;;;;;;5035949;28;20231;-52
2020/12/03 05:36:21;;;;;;;6.22;5.63;;;;;;;;;;5035681;28;20179;-52
2020/12/03 05:38:47;;;;;;;6.70;6.00;;;;;;;;;;5035571;28;20230;-52
2020/12/03 05:41:15;;;;;;;5.68;5.18;;;;;;;;;;5036053;28;20265;-52
2020/12/03 05:43:41;;;;;;;6.53;5.85;;;;;;;;;;5035663;28;20222;-52
2020/12/03 05:46:08;;;;;;;6.65;5.85;;;;;;;;;;5035612;28;20184;-51
2020/12/03 05:48:34;;;;;;;6.60;5.63;;;;;;;;;;5035689;28;20176;-51
2020/12/03 05:51:15;;;;;;;6.43;5.78;;;;;;;;;;5035962;28;20168;-51
2020/12/03 05:53:51;;;;;;;6.55;5.88;;;;;;;;;;5036087;28;20202;-52
2020/12/03 05:56:21;;;;;;;7.22;5.95;;;;;;;;;;5035299;28;20479;-52
2020/12/03 05:58:47;;;;;;;6.30;5.70;;;;;;;;;;5032264;28;20451;-52
2020/12/03 06:01:13;;;;;;;6.78;6.07;;;;;;;;;;5035262;28;20281;-52
2020/12/03 06:03:47;;;;;;;6.10;5.50;;;;;;;;;;5035487;28;20251;-52
2020/12/03 06:06:19;;;;;;;7.15;6.43;;;;;;;;;;5034315;28;20449;-52
2020/12/03 06:09:00;;;;;;;7.03;6.00;;;;;;;;;;5035022;28;20180;-52
2020/12/03 06:11:34;;;;;;;7.00;6.30;;;;;;;;;;5039442;28;20168;-52
2020/12/03 06:14:03;;;;;;;8.02;6.18;;;;;;;;;;5038102;28;20183;-52
2020/12/03 06:16:41;;;;;;;7.03;5.90;;;;;;;;;;5039132;28;20586;-52
2020/12/03 06:19:26;;;;;;;6.40;5.50;;;;;;;;;;5038824;28;20184;-52
2020/12/03 06:21:59;;;;;;;6.95;6.25;;;;;;;;;;5038228;28;20578;-51
2020/12/03 06:24:25;;;;;;;6.05;5.45;;;;;;;;;;5036640;28;20546;-51
2020/12/03 06:26:51;;;;;;;7.30;5.63;;;;;;;;;;5038387;28;20188;-52
2020/12/03 06:29:44;;;;;;;5.88;5.28;;;;;;;;;;5038452;28;20183;-52
2020/12/03 06:32:12;;;;;;;6.53;5.93;;;;;;;;;;5039052;28;20172;-52
2020/12/03 06:34:41;;;;;;;6.95;5.90;;;;;;;;;;5038691;28;20582;-52
2020/12/03 06:37:17;;;;;;;14.52;11.35;;;;;;;;;;5034586;28;20179;-43
2020/12/03 06:39:49;;;;;;;10.02;7.07;;;;;;;;;;5038238;28;20183;-42
2020/12/03 06:42:19;;;;;;;7.65;6.85;;;;;;;;;;5020617;28;20290;-42
2020/12/03 06:44:48;;;;;;;8.93;7.22;;;;;;;;;;5037636;28;20218;-42
2020/12/03 06:47:20;;;;;;;9.30;8.40;;;;;;;;;;5037535;28;20184;-46
2020/12/03 06:49:54;;;;;;;9.40;8.20;;;;;;;;;;5037534;28;20176;-41
2020/12/03 06:52:33;;;;;;;9.50;8.50;;;;;;;;;;5037160;28;20614;-43
2020/12/03 06:55:17;;;;;;;9.48;8.57;;;;;;;;;;5037270;28;20278;-45
2020/12/03 06:57:52;;;;;;;12.32;9.25;;;;;;;;;;5037718;28;20433;-47
2020/12/03 07:00:27;;;;;;;9.85;8.48;;;;;;;;;;5037372;28;20222;-43
2020/12/03 07:03:14;;;;;;;10.63;9.00;;;;;;;;;;5036345;28;20288;-43
2020/12/03 07:05:40;;;;;;;10.70;9.85;;;;;;;;;;5035600;28;20180;-44
2020/12/03 07:08:09;;;;;;;11.13;10.07;;;;;;;;;;5037111;28;20187;-45
2020/12/03 07:10:57;;;;;;;12.75;11.55;;;;;;;;;;5037148;28;20176;-44
2020/12/03 07:13:26;;;;;;;14.57;11.85;;;;;;;;;;5029592;28;20192;-43
2020/12/03 07:15:58;;;;;;;12.25;11.10;;;;;;;;;;5029878;28;20551;-47
2020/12/03 07:18:48;;;;;;;12.98;11.77;;;;;;;;;;5036993;28;20187;-47
2020/12/03 07:21:25;;;;;;;13.38;12.05;;;;;;;;;;5019817;28;20196;-46
2020/12/03 07:24:11;;;;;;;13.80;12.60;;;;;;;;;;5036942;28;20180;-43
2020/12/03 07:27:07;;;;;;;14.38;13.18;;;;;;;;;;5036848;28;20467;-44
2020/12/03 07:29:45;;;;;;;14.80;13.40;;;;;;;;;;5019539;28;20275;-41
2020/12/03 07:32:30;;;;;;;15.68;14.13;;;;;;;;;;5032109;28;20256;-46
2020/12/03 07:35:09;;;;;;;15.80;14.30;;;;;;;;;;5036061;28;20172;-44
2020/12/03 07:37:44;;;;;;;15.15;13.85;;;;;;;;;;5026343;28;20463;-42
2020/12/03 07:40:10;;;;;;;14.93;13.73;;;;;;;;;;5036834;28;20461;-44
2020/12/03 07:42:36;;;;;;;15.43;14.07;;;;;;;;;;5031744;28;20294;-42
2020/12/03 07:45:22;;;;;;;15.20;13.90;;;;;;;;;;5035923;28;20474;-46
2020/12/03 07:48:06;;;;;;;15.75;14.45;;;;;;;;;;5029637;28;20184;-40
2020/12/03 07:50:38;;;;;;;14.85;13.32;;;;;;;;;;5029006;28;20199;-40
2020/12/03 07:53:13;;;;;;;13.20;12.00;;;;;;;;;;5028060;28;20188;-40
2020/12/03 07:55:40;;;;;;;11.73;10.73;;;;;;;;;;5019167;28;20214;-40
2020/12/03 07:58:06;;;;;;;12.43;11.30;;;;;;;;;;5030408;28;20188;-40
2020/12/03 08:00:53;;;;;;;12.13;10.75;;;;;;;;;;5036154;28;20463;-40
2020/12/03 08:03:38;;;;;;;11.55;10.45;;;;;;;;;;5035323;28;20188;-40
2020/12/03 08:06:12;;;;;;;10.20;9.23;;;;;;;;;;5031438;28;20199;-40
2020/12/03 08:08:39;;;;;;;10.45;9.50;;;;;;;;;;5031138;28;21745;-40
2020/12/03 08:11:06;;;;;;;10.27;9.07;;;;;;;;;;5034125;28;20275;-41
2020/12/03 08:13:40;;;;;;;10.90;9.90;;;;;;;;;;5031827;28;20267;-40
2020/12/03 08:16:07;;;;;;;11.82;9.93;;;;;;;;;;5035599;28;20203;-40
2020/12/03 08:18:36;;;;;;;10.52;9.45;;;;;;;;;;5035720;28;20475;-40
2020/12/03 08:21:03;;;;;;;10.30;9.30;;;;;;;;;;5035950;28;20186;-40
2020/12/03 08:23:29;;;;;;;11.10;9.90;;;;;;;;;;5035604;28;20187;-41
2020/12/03 08:25:55;;;;;;;11.00;8.57;;;;;;;;;;5035056;28;20182;-46
2020/12/03 08:28:24;;;;;;;10.50;8.55;;;;;;;;;;5030882;28;20180;-45
2020/12/03 08:30:51;;;;;;;9.55;8.50;;;;;;;;;;5034937;28;20187;-44
2020/12/03 08:33:24;;;;;;;10.27;9.05;;;;;;;;;;5035459;28;20183;-45
2020/12/03 08:36:12;;;;;;;9.70;8.43;;;;;;;;;;5035256;28;20187;-43
2020/12/03 08:38:41;;;;;;;9.88;8.52;;;;;;;;;;5035163;28;20452;-44
2020/12/03 08:41:10;;;;;;;9.05;7.85;;;;;;;;;;5035182;28;20321;-43
2020/12/03 08:43:42;;;;;;;11.95;7.95;;;;;;;;;;5030816;28;20176;-42
2020/12/03 08:46:15;;;;;;;11.50;8.07;;;;;;;;;;5034290;28;20195;-43
2020/12/03 08:48:42;;;;;;;11.50;8.25;;;;;;;;;;5035478;28;20310;-44
2020/12/03 08:51:10;;;;;;;8.93;7.97;;;;;;;;;;5035207;28;20218;-42
2020/12/03 08:53:37;;;;;;;12.05;8.23;;;;;;;;;;5035119;28;20184;-43
2020/12/03 08:56:09;;;;;;;9.95;8.07;;;;;;;;;;5031021;28;20180;-44
2020/12/03 08:58:35;;;;;;;9.13;7.78;;;;;;;;;;5035456;28;20215;-41
2020/12/03 09:01:03;;;;;;;9.13;7.82;;;;;;;;;;5034686;28;20241;-42
2020/12/03 09:03:32;;;;;;;8.57;7.35;;;;;;;;;;5034787;28;20176;-43
2020/12/03 09:05:58;;;;;;;9.98;7.32;;;;;;;;;;5034331;28;20180;-43
2020/12/03 09:08:24;;;;;;;8.27;7.13;;;;;;;;;;5035098;28;20262;-48
2020/12/03 09:10:51;;;;;;;11.15;7.88;;;;;;;;;;5035092;28;20508;-43
2020/12/03 09:13:18;;;;;;;9.38;7.50;;;;;;;;;;5034462;28;20278;-45
2020/12/03 09:15:46;;;;;;;9.90;7.50;;;;;;;;;;5034038;28;20188;-44
2020/12/03 09:18:12;;;;;;;13.35;9.13;;;;;;;;;;5034693;28;20203;-44
2020/12/03 09:20:42;;;;;;;21.00;14.02;;;;;;;;;;5034836;28;20211;-48
2020/12/03 09:23:14;;;;;;;23.30;13.90;;;;;;;;;;5034731;28;20204;-43
2020/12/03 09:25:40;;;;;;;20.83;13.02;;;;;;;;;;5035122;28;20172;-41
2020/12/03 09:28:06;;;;;;;21.08;13.15;;;;;;;;;;5034968;28;20183;-44
2020/12/03 09:30:32;;;;;;;22.00;13.88;;;;;;;;;;5035260;28;20192;-42
2020/12/03 09:32:59;;;;;;;17.50;12.77;;;;;;;;;;5034043;28;20258;-41
2020/12/03 09:35:27;;;;;;;20.60;12.05;;;;;;;;;;5033689;28;20211;-45
2020/12/03 09:37:58;;;;;;;14.15;10.40;;;;;;;;;;5034910;28;20579;-43
2020/12/03 09:40:25;;;;;;;17.10;10.43;;;;;;;;;;5035369;28;20182;-46
2020/12/03 09:42:52;;;;;;;13.82;10.43;;;;;;;;;;5031577;28;20208;-44
2020/12/03 09:45:20;;;;;;;14.13;10.30;;;;;;;;;;5036835;28;20180;-44
2020/12/03 09:47:46;;;;;;;14.77;9.80;;;;;;;;;;5038729;28;20250;-44
2020/12/03 09:50:13;;;;;;;14.48;9.95;;;;;;;;;;5038404;28;20266;-44
2020/12/03 09:52:41;;;;;;;11.23;8.18;;;;;;;;;;5036758;28;20476;-47
2020/12/03 09:55:08;;;;;;;10.75;8.48;;;;;;;;;;5038481;28;20545;-42
2020/12/03 09:57:34;;;;;;;19.10;8.70;;;;;;;;;;5038417;28;20184;-47
2020/12/03 10:00:01;;;;;;;11.40;8.18;;;;;;;;;;5037454;28;20180;-44
2020/12/03 10:02:26;;;;;;;13.82;8.90;;;;;;;;;;5038296;28;20274;-44
2020/12/03 10:05:01;;;;;;;11.32;7.97;;;;;;;;;;5035235;28;20299;-42
2020/12/03 10:07:46;;;;;;;9.55;6.68;;;;;;;;;;5036583;28;20179;-42
2020/12/03 10:10:24;;;;;;;12.82;7.55;;;;;;;;;;5026641;28;20582;-44
2020/12/03 10:13:35;;;;;;;11.30;7.30;;;;;;;;;;5162041;27;20501;-50
2020/12/03 10:16:06;;;;;;;13.38;7.53;;;;;;;;;;5113838;28;20191;-43
2020/12/03 10:20:27;;;;;;;9.50;7.20;;;;;;;;;;5174384;27;20476;-45
2020/12/03 10:22:57;;;;;;;13.43;7.65;;;;;;;;;;5127248;27;20212;-45
2020/12/03 10:25:23;;;;;;;10.27;7.05;;;;;;;;;;5127998;28;20185;-48
2020/12/03 10:27:59;;;;;;;11.15;7.55;;;;;;;;;;5133840;28;20176;-49
2020/12/03 10:30:35;;;;;;;11.50;7.40;;;;;;;;;;5133863;28;20168;-46
2020/12/03 10:33:04;;;;;;;20.05;10.35;;;;;;;;;;5133577;28;20164;-49
2020/12/03 10:35:31;;;;;;;14.38;8.88;;;;;;;;;;5129931;28;20605;-47
2020/12/03 10:37:59;;;;;;;21.55;9.48;;;;;;;;;;5118930;28;20179;-45
2020/12/03 10:40:26;;;;;;;19.65;9.63;;;;;;;;;;5112750;28;20175;-43
2020/12/03 10:43:07;;;;;;;18.95;9.00;;;;;;;;;;5130811;28;20177;-43
2020/12/03 10:45:37;;;;;;;20.33;9.52;;;;;;;;;;5110933;28;20423;-43
2020/12/03 10:48:11;;;;;;;27.30;11.48;;;;;;;;;;5122435;28;20173;-42
2020/12/03 10:50:56;;;;;;;25.20;12.13;;;;;;;;;;5133052;28;20169;-42
2020/12/03 10:53:23;;;;;;;35.97;16.08;;;;;;;;;;5129471;28;20591;-45
2020/12/03 10:55:55;;;;;;;39.85;15.38;;;;;;;;;;5115190;28;20196;-43
2020/12/03 10:58:25;;;;;;;30.83;14.68;;;;;;;;;;5112416;28;20631;-44
2020/12/03 11:00:51;;;;;;;29.23;13.02;;;;;;;;;;5115778;28;20169;-47
2020/12/03 11:03:22;;;;;;;31.23;13.98;;;;;;;;;;5132943;28;20251;-44
2020/12/03 11:05:48;;;;;;;33.78;13.80;;;;;;;;;;5115293;28;20184;-41
2020/12/03 11:08:14;;;;;;;31.63;13.82;;;;;;;;;;5122038;28;20233;-45
2020/12/03 11:10:41;;;;;;;23.80;12.32;;;;;;;;;;5124990;28;20184;-45
2020/12/03 11:13:08;;;;;;;26.08;12.45;;;;;;;;;;5127085;28;20176;-46
2020/12/03 11:15:34;;;;;;;23.45;11.48;;;;;;;;;;5122106;28;20268;-45
2020/12/03 11:18:04;;;;;;;22.00;10.68;;;;;;;;;;5119377;28;20188;-44
2020/12/03 11:20:32;;;;;;;21.55;10.15;;;;;;;;;;5112129;28;20189;-42
2020/12/03 11:23:02;;;;;;;28.00;13.15;;;;;;;;;;5115799;28;20169;-42
2020/12/03 11:25:29;;;;;;;30.58;13.75;;;;;;;;;;5131730;28;20176;-42
2020/12/03 11:27:59;;;;;;;30.58;15.15;;;;;;;;;;5129317;28;20544;-44
2020/12/03 11:30:27;;;;;;;33.58;16.10;;;;;;;;;;5119617;28;20181;-42
2020/12/03 11:32:55;;;;;;;29.05;14.27;;;;;;;;;;5098326;28;20182;-42
2020/12/03 11:35:24;;;;;;;28.50;14.00;;;;;;;;;;5100352;28;20182;-42
2020/12/03 11:37:52;;;;;;;27.80;13.68;;;;;;;;;;5109347;28;20177;-42
2020/12/03 11:40:22;;;;;;;35.83;14.15;;;;;;;;;;5118669;28;20579;-45
2020/12/03 11:43:00;;;;;;;32.65;13.90;;;;;;;;;;5113485;28;20519;-47
2020/12/03 11:50:37;;;;;;;24.60;11.30;;;;;;;;;;5097914;28;20182;-46
2020/12/03 11:53:05;;;;;;;21.80;11.13;;;;;;;;;;5117417;28;20169;-45
2020/12/03 11:55:31;;;;;;;20.77;10.73;;;;;;;;;;5117974;28;20223;-45
2020/12/03 11:58:07;;;;;;;15.48;9.52;;;;;;;;;;5110863;28;20181;-45
2020/12/03 12:00:34;;;;;;;20.60;9.30;;;;;;;;;;5115380;27;20180;-45
2020/12/03 12:03:11;;;;;;;20.35;9.30;;;;;;;;;;5121772;27;20170;-45
2020/12/03 12:08:37;;;;;;;14.82;8.38;;;;;;;;;;5109989;28;20184;-46
2020/12/03 12:11:18;;;;;;;17.83;8.55;;;;;;;;;;5115506;28;20174;-45
2020/12/03 12:13:44;;;;;;;13.50;8.18;;;;;;;;;;5111590;28;20546;-45
2020/12/03 12:16:11;;;;;;;14.93;7.75;;;;;;;;;;5117216;28;20184;-46
2020/12/03 12:18:37;;;;;;;12.32;6.85;;;;;;;;;;5117530;28;20296;-46
2020/12/03 12:21:04;;;;;;;12.52;7.40;;;;;;;;;;5100728;28;20205;-45
2020/12/03 12:23:30;;;;;;;18.30;6.97;;;;;;;;;;5117550;28;20173;-45
2020/12/03 12:25:56;;;;;;;9.82;6.43;;;;;;;;;;5116458;28;20181;-46
2020/12/03 12:28:22;;;;;;;12.23;7.32;;;;;;;;;;5106254;28;20206;-43
2020/12/03 12:30:48;;;;;;;13.65;6.13;;;;;;;;;;5097642;28;20572;-43
2020/12/03 12:33:14;;;;;;;11.10;6.28;;;;;;;;;;5103446;28;20194;-43
2020/12/03 12:35:40;;;;;;;11.75;5.95;;;;;;;;;;5103254;28;20262;-41
2020/12/03 12:38:06;;;;;;;10.52;5.90;;;;;;;;;;5097792;28;20178;-43
2020/12/03 12:40:32;;;;;;;9.25;5.15;;;;;;;;;;5100247;28;20234;-43
2020/12/03 12:42:58;;;;;;;10.38;5.35;;;;;;;;;;5104907;28;20183;-43
2020/12/03 12:45:24;;;;;;;9.65;5.72;;;;;;;;;;5104515;28;20586;-40
2020/12/03 12:47:50;;;;;;;8.93;5.03;;;;;;;;;;5116914;28;20237;-43
2020/12/03 12:50:17;;;;;;;7.32;4.88;;;;;;;;;;5116948;28;20173;-42
2020/12/03 12:52:43;;;;;;;9.32;4.35;;;;;;;;;;5104363;28;20211;-44
2020/12/03 12:55:09;;;;;;;8.77;4.85;;;;;;;;;;5095805;28;20182;-43
2020/12/03 12:57:35;;;;;;;8.15;5.10;;;;;;;;;;5107649;27;20178;-42
2020/12/03 13:00:01;;;;;;;5.95;4.25;;;;;;;;;;5099186;28;20478;-45
2020/12/03 13:02:27;;;;;;;6.53;4.80;;;;;;;;;;5105736;28;20180;-44
2020/12/03 13:04:53;;;;;;;5.97;4.20;;;;;;;;;;5115366;28;20557;-44
2020/12/03 13:07:19;;;;;;;9.80;4.72;;;;;;;;;;5104153;28;20182;-44
2020/12/03 13:09:45;;;;;;;7.45;4.97;;;;;;;;;;5096473;28;20178;-44
2020/12/03 13:12:12;;;;;;;7.88;4.88;;;;;;;;;;5110997;28;20181;-44
2020/12/03 13:14:38;;;;;;;10.75;4.75;;;;;;;;;;5095282;28;20182;-44
2020/12/03 13:17:04;;;;;;;14.02;5.65;;;;;;;;;;5097282;28;20238;-44
2020/12/03 13:19:30;;;;;;;10.60;5.45;;;;;;;;;;5096293;28;20596;-41
2020/12/03 13:21:57;;;;;;;5.88;4.40;;;;;;;;;;5112692;28;20517;-43
2020/12/03 13:24:24;;;;;;;6.97;4.82;;;;;;;;;;5103939;28;20196;-45
2020/12/03 13:26:51;;;;;;;10.50;4.57;;;;;;;;;;5100138;28;20273;-45
2020/12/03 13:29:17;;;;;;;5.20;4.38;;;;;;;;;;5111480;28;20181;-44
2020/12/03 13:31:47;;;;;;;5.43;4.30;;;;;;;;;;5098517;28;20614;-44
2020/12/03 13:34:13;;;;;;;5.00;3.90;;;;;;;;;;5104428;28;20264;-45
2020/12/03 13:36:39;;;;;;;6.10;4.28;;;;;;;;;;5106439;28;20181;-45
2020/12/03 13:39:06;;;;;;;7.35;4.18;;;;;;;;;;5107659;28;20473;-44
2020/12/03 13:41:32;;;;;;;6.32;3.88;;;;;;;;;;5114204;28;20166;-44
2020/12/03 13:43:59;;;;;;;8.15;4.63;;;;;;;;;;5099297;28;20189;-47
2020/12/03 13:46:25;;;;;;;7.47;4.13;;;;;;;;;;5095778;28;20300;-47
2020/12/03 13:48:51;;;;;;;6.53;4.00;;;;;;;;;;5095914;28;20189;-42
2020/12/03 13:51:17;;;;;;;10.23;4.47;;;;;;;;;;5100375;28;20188;-43
2020/12/03 13:53:44;;;;;;;5.97;3.60;;;;;;;;;;5105364;28;20177;-43
2020/12/03 13:56:11;;;;;;;5.78;4.07;;;;;;;;;;5095290;28;20427;-45
2020/12/03 13:58:37;;;;;;;6.22;3.53;;;;;;;;;;5110715;28;20197;-42
2020/12/03 14:01:03;;;;;;;8.23;4.30;;;;;;;;;;5107498;28;20205;-44
2020/12/03 14:03:29;;;;;;;6.93;3.72;;;;;;;;;;5108557;28;20209;-43
2020/12/03 14:05:55;;;;;;;4.57;3.53;;;;;;;;;;5106700;28;20518;-43
2020/12/03 14:08:21;;;;;;;7.05;3.90;;;;;;;;;;5104592;28;20185;-42
2020/12/03 14:10:48;;;;;;;4.15;3.53;;;;;;;;;;5099229;28;20222;-42
2020/12/03 14:13:14;;;;;;;5.20;3.75;;;;;;;;;;5111217;28;20173;-44
2020/12/03 14:15:40;;;;;;;5.65;3.70;;;;;;;;;;5095403;28;20260;-43
2020/12/03 14:18:06;;;;;;;5.47;3.83;;;;;;;;;;5102545;28;20252;-45
2020/12/03 14:20:32;;;;;;;4.68;3.47;;;;;;;;;;5095213;28;20291;-43
2020/12/03 14:22:58;;;;;;;4.60;3.60;;;;;;;;;;5102498;28;20520;-42
2020/12/03 14:25:24;;;;;;;7.07;4.05;;;;;;;;;;5095021;28;20186;-46
2020/12/03 14:27:50;;;;;;;5.75;3.50;;;;;;;;;;5108992;28;20185;-44
2020/12/03 14:30:17;;;;;;;5.88;3.70;;;;;;;;;;5113982;28;20188;-43
2020/12/03 14:32:43;;;;;;;5.75;3.95;;;;;;;;;;5115493;28;20209;-44
2020/12/03 14:35:09;;;;;;;5.72;3.75;;;;;;;;;;5097093;28;20285;-44
2020/12/03 14:37:36;;;;;;;6.78;3.67;;;;;;;;;;5101901;28;20181;-44
2020/12/03 14:40:06;;;;;;;5.65;3.88;;;;;;;;;;5101366;28;20213;-44
2020/12/03 14:42:33;;;;;;;6.90;4.18;;;;;;;;;;5097623;28;20204;-46
2020/12/03 14:44:59;;;;;;;5.03;3.75;;;;;;;;;;5114259;28;20458;-45
2020/12/03 14:47:25;;;;;;;6.65;3.90;;;;;;;;;;5096517;28;20283;-45
2020/12/03 14:49:51;;;;;;;5.43;3.83;;;;;;;;;;5100418;28;20181;-45
2020/12/03 14:52:17;;;;;;;5.72;3.78;;;;;;;;;;5100597;28;20323;-46
2020/12/03 14:54:43;;;;;;;5.30;4.15;;;;;;;;;;5094772;28;20178;-45
2020/12/03 14:57:09;;;;;;;5.10;4.13;;;;;;;;;;5078891;28;20178;-44